ID Time Temp Humidity Light PM2.5 PM10 Voltage Extra Firmware Position Fcnt TTN version Gateways Distance RSSI LSNR Radiosettings
2026-05-03 23:23:37 13.625°C 104.25% 3.34V v254 52.0982 / 5.12262 8714 ttn.v3 - -119 -14.5 868.5MHz, SF10BW125, 4/5CR
2026-05-03 22:19:46 14.3125°C 104.938% 3.34V v254 52.0982 / 5.12262 8710 ttn.v3 - -119 -5.75 868.1MHz, SF10BW125, 4/5CR
2.099km -104 -14 868.1MHz, SF10BW125, 4/5CR
2026-05-03 21:47:49 14.5°C 104.688% 3.34V v254 52.0982 / 5.12262 8708 ttn.v3 - -119 -16.25 868.5MHz, SF10BW125, 4/5CR
2026-05-03 18:52:08 15.125°C 102.125% 3.34V v254 52.0982 / 5.12262 8697 ttn.v3 - -120 -10.5 867.9MHz, SF10BW125, 4/5CR
2026-05-03 18:36:10 15.0625°C 103.5% 3.34V v254 52.0982 / 5.12262 8696 ttn.v3 - -118 -15.25 868.5MHz, SF10BW125, 4/5CR
2026-05-03 17:16:19 14.375°C 103.688% 3.34V v254 52.0982 / 5.12262 8691 ttn.v3 0.531km -119 -15.5 867.3MHz, SF10BW125, 4/5CR
2026-05-03 15:40:28 15.4375°C 104.438% 3.34V v254 52.0982 / 5.12262 8685 ttn.v3 2.099km -107 -13.75 867.7MHz, SF10BW125, 4/5CR
2026-05-03 15:24:29 15.25°C 104.5% 3.34V v254 52.0982 / 5.12262 8684 ttn.v3 - -116 -14.25 868.5MHz, SF10BW125, 4/5CR
2026-05-03 14:36:35 15.3125°C 104% 3.34V v254 52.0982 / 5.12262 8681 ttn.v3 - -122 -11.5 867.3MHz, SF10BW125, 4/5CR
2026-05-03 14:04:38 15.5°C 103.562% 3.34V v254 52.0982 / 5.12262 8679 ttn.v3 - -127 -12 867.1MHz, SF10BW125, 4/5CR
2026-05-03 13:32:41 15.9375°C 101.625% 3.34V v254 52.0982 / 5.12262 8677 ttn.v3 2.099km -110 -14.75 867.9MHz, SF10BW125, 4/5CR
2026-05-03 11:56:47 17.375°C 88.875% 3.34V v254 52.0982 / 5.12262 8671 ttn.v3 0.531km -120 -14.5 867.3MHz, SF10BW125, 4/5CR
2026-05-03 11:24:50 17.125°C 90.3125% 3.34V v254 52.0982 / 5.12262 8669 ttn.v3 0.531km -119 -12.8 867.1MHz, SF10BW125, 4/5CR
2026-05-03 11:08:51 16.9375°C 90.375% 3.34V v254 52.0982 / 5.12262 8668 ttn.v3 - -122 -12 868.1MHz, SF10BW125, 4/5CR
2026-05-03 10:36:53 16.875°C 92.5% 3.34V v254 52.0982 / 5.12262 8666 ttn.v3 - -120 -17.75 868.5MHz, SF10BW125, 4/5CR
2026-05-03 09:16:59 15.75°C 96.875% 3.33V v254 52.0982 / 5.12262 8661 ttn.v3 0.531km -120 -16.5 867.3MHz, SF10BW125, 4/5CR
2026-05-03 08:45:03 15.25°C 99.8125% 3.34V v254 52.0982 / 5.12262 8659 ttn.v3 0.531km -119 -16 867.1MHz, SF10BW125, 4/5CR
2026-05-03 07:25:13 13.75°C 102.562% 3.34V v254 52.0982 / 5.12262 8654 ttn.v3 - -119 -16.25 868.5MHz, SF10BW125, 4/5CR
2026-05-03 06:05:25 13.75°C 105% 3.34V v254 52.0982 / 5.12262 8649 ttn.v3 2.099km -109 -12.25 867.1MHz, SF10BW125, 4/5CR
2026-05-03 05:49:28 13.8125°C 105.25% 3.33V v254 52.0982 / 5.12262 8648 ttn.v3 - -118 -14.25 868.5MHz, SF10BW125, 4/5CR
2026-05-03 05:01:35 13.75°C 105.188% 3.34V v254 52.0982 / 5.12262 8645 ttn.v3 2.099km -109 -12.5 867.7MHz, SF10BW125, 4/5CR
2026-05-03 04:45:37 13.625°C 105.062% 3.34V v254 52.0982 / 5.12262 8644 ttn.v3 - -121 -15.5 868.1MHz, SF10BW125, 4/5CR
2026-05-03 03:57:45 13.5°C 104.875% 3.33V v254 52.0982 / 5.12262 8641 ttn.v3 2.099km -104 -11.25 867.3MHz, SF10BW125, 4/5CR
0.531km -120 -16.2 867.3MHz, SF10BW125, 4/5CR
2026-05-03 03:25:50 13.5°C 105.312% 3.33V v254 52.0982 / 5.12262 8639 ttn.v3 2.099km -105 -11.25 867.1MHz, SF10BW125, 4/5CR
2026-05-03 03:10:40 13.375°C 105% 3.34V v254 52.0982 / 5.12262 8638 ttn.v3 - -121 -14.25 868.1MHz, SF12BW125, 4/5CR
2026-05-03 02:22:03 13.625°C 104.938% 3.34V v254 52.0981 / 5.12247 8635 ttn.v3 - -120 -6.75 867.7MHz, SF10BW125, 4/5CR
2.108km -107 -7.75 867.7MHz, SF10BW125, 4/5CR
2026-05-03 01:18:12 13.8125°C 104.562% 3.34V v254 52.0981 / 5.12247 8631 ttn.v3 2.108km -109 -9.5 867.3MHz, SF10BW125, 4/5CR
2026-05-03 00:14:22 14.25°C 104.75% 3.34V v254 52.0981 / 5.12247 8627 ttn.v3 2.108km -107 -14.5 867.9MHz, SF10BW125, 4/5CR
2026-05-02 23:26:27 16.6875°C 62.9375% 3.34V v254 52.0981 / 5.12247 8624 ttn.v3 0.535km -120 -15 868.5MHz, SF10BW125, 4/5CR
2026-05-02 23:10:28 16.625°C 62.625% 3.34V v254 52.0981 / 5.12247 8623 ttn.v3 0.535km -119 -14.5 867.5MHz, SF10BW125, 4/5CR
2026-05-02 22:06:32 17.375°C 65.125% 3.34V v254 52.0981 / 5.12247 8619 ttn.v3 0.535km -120 -14.2 867.1MHz, SF10BW125, 4/5CR
2026-05-02 21:50:33 17.5625°C 64.6875% 3.34V v254 52.0981 / 5.12247 8618 ttn.v3 - -118 -13 868.5MHz, SF10BW125, 4/5CR
2026-05-02 21:34:34 17.625°C 65.25% 3.34V v254 52.0981 / 5.12247 8617 ttn.v3 2.108km -110 -12.25 867.9MHz, SF10BW125, 4/5CR
0.535km -120 -16.5 867.9MHz, SF10BW125, 4/5CR
2026-05-02 20:14:35 19.6875°C 61.25% 3.34V v254 52.0981 / 5.12247 8612 ttn.v3 - -119 -14.5 868.5MHz, SF10BW125, 4/5CR
2026-05-02 18:54:33 21.5625°C 55.25% 3.34V v254 52.0981 / 5.12247 8607 ttn.v3 2.108km -111 -10.5 867.9MHz, SF10BW125, 4/5CR
2026-05-02 18:22:31 21.6875°C 56.3125% 3.34V v254 52.0981 / 5.12247 8605 ttn.v3 0.535km -120 -15.2 867.7MHz, SF10BW125, 4/5CR
2026-05-02 17:18:26 22.25°C 57.5% 3.34V v254 52.0981 / 5.12247 8601 ttn.v3 2.108km -107 -8.25 867.3MHz, SF10BW125, 4/5CR
0.535km -120 -13.2 867.3MHz, SF10BW125, 4/5CR
2026-05-02 16:46:23 22.625°C 58.9375% 3.34V v254 52.0981 / 5.12247 8599 ttn.v3 2.108km -105 -9.75 867.1MHz, SF10BW125, 4/5CR
2026-05-02 16:14:21 22.6875°C 61.0625% 3.34V v254 52.0981 / 5.12247 8597 ttn.v3 2.108km -110 -10.25 867.9MHz, SF10BW125, 4/5CR
2026-05-02 14:06:12 21.375°C 65.5625% 3.34V v254 52.0981 / 5.12247 8589 ttn.v3 2.108km -110 -8.25 867.1MHz, SF10BW125, 4/5CR
2026-05-02 10:54:04 19.1875°C 62.3125% 3.34V v254 52.0981 / 5.12247 8577 ttn.v3 2.108km -113 -9 867.9MHz, SF10BW125, 4/5CR
2026-05-02 10:38:05 17.1875°C 66.5% 3.34V v254 52.0981 / 5.12247 8576 ttn.v3 0.535km -120 -15.5 868.5MHz, SF10BW125, 4/5CR
2026-05-02 10:22:07 15.9375°C 70.75% 3.34V v254 52.0981 / 5.12247 8575 ttn.v3 2.108km -107 -6.25 867.7MHz, SF10BW125, 4/5CR
2026-05-02 09:34:13 14.5°C 70.75% 3.33V v254 52.0981 / 5.12247 8572 ttn.v3 - -123 -13.25 868.1MHz, SF10BW125, 4/5CR
2026-05-02 09:18:16 14.125°C 71.5625% 3.34V v254 52.0981 / 5.12247 8571 ttn.v3 2.108km -107 -3.25 867.3MHz, SF10BW125, 4/5CR
0.535km -119 -13.5 867.3MHz, SF10BW125, 4/5CR
- -127 -14.5 867.3MHz, SF10BW125, 4/5CR
2026-05-02 08:46:21 13.6875°C 62.9375% 3.34V v254 52.0981 / 5.12247 8569 ttn.v3 2.108km -108 -4 867.1MHz, SF10BW125, 4/5CR
2026-05-02 08:14:26 13.1875°C 61.125% 3.34V v254 52.0981 / 5.12247 8567 ttn.v3 0.535km -120 -13.8 867.9MHz, SF10BW125, 4/5CR
2026-05-02 07:58:29 12.8125°C 63.75% 3.33V v254 52.0981 / 5.12247 8566 ttn.v3 0.535km -120 -14.8 868.1MHz, SF10BW125, 4/5CR
2026-05-02 07:42:32 12.5625°C 61.625% 3.34V v254 52.0981 / 5.12247 8565 ttn.v3 0.535km -118 -12.2 867.7MHz, SF10BW125, 4/5CR
- -115 -16.5 867.7MHz, SF10BW125, 4/5CR
2026-05-02 06:38:44 11.3125°C 68.4375% 3.33V v254 52.0981 / 5.12247 8561 ttn.v3 2.108km -105 -13 867.3MHz, SF10BW125, 4/5CR
0.535km -121 -15 867.3MHz, SF10BW125, 4/5CR
2026-05-02 06:06:51 11.75°C 63.9375% 3.33V v254 52.0981 / 5.12247 8559 ttn.v3 2.108km -103 -7 867.1MHz, SF10BW125, 4/5CR
2026-05-02 05:34:58 11.6875°C 66% 3.33V v254 52.0981 / 5.12247 8557 ttn.v3 2.108km -107 -7.25 867.9MHz, SF10BW125, 4/5CR
2026-05-02 04:47:07 12.3125°C 64.1875% 3.34V v254 52.0981 / 5.12247 8554 ttn.v3 2.108km -108 -12 868.1MHz, SF10BW125, 4/5CR
2026-05-02 04:31:10 12.5625°C 61.875% 3.34V v254 52.0981 / 5.12247 8553 ttn.v3 0.535km -119 -16 867.5MHz, SF10BW125, 4/5CR
2026-05-02 04:15:13 12.8125°C 60.1875% 3.34V v254 52.0981 / 5.12247 8552 ttn.v3 0.535km -118 -14.8 868.5MHz, SF10BW125, 4/5CR
2026-05-02 03:59:16 12.875°C 60% 3.34V v254 52.0981 / 5.12247 8551 ttn.v3 2.108km -104 -4 867.3MHz, SF10BW125, 4/5CR
0.535km -120 -12.2 867.3MHz, SF10BW125, 4/5CR
- -124 -12.5 867.3MHz, SF10BW125, 4/5CR
2026-05-02 03:27:21 13.1875°C 59.3125% 3.34V v254 52.0981 / 5.12247 8549 ttn.v3 2.108km -101 -4.5 867.1MHz, SF10BW125, 4/5CR
2026-05-02 02:55:27 13.5°C 58.5% 3.33V v254 52.0981 / 5.12247 8547 ttn.v3 2.108km -108 -6.5 867.9MHz, SF10BW125, 4/5CR
2026-05-02 02:23:32 14.0625°C 55.3125% 3.34V v254 52.0981 / 5.12247 8545 ttn.v3 0.535km -118 -15.5 867.7MHz, SF10BW125, 4/5CR
2026-05-02 01:51:36 14.3125°C 55.875% 3.34V v254 52.0981 / 5.12247 8543 ttn.v3 0.535km -119 -13.5 867.5MHz, SF10BW125, 4/5CR
2026-05-02 01:37:11 14.375°C 55.3125% 3.34V v254 52.0981 / 5.12247 8542 ttn.v3 2.108km -105 -11.25 868.1MHz, SF12BW125, 4/5CR
0.535km -121 -15.5 868.1MHz, SF12BW125, 4/5CR
- -124 -15.5 868.1MHz, SF12BW125, 4/5CR
2026-05-02 01:19:46 14.75°C 53.8125% 3.34V v254 52.0985 / 5.12204 8541 ttn.v3 2.144km -91 -8.75 867.3MHz, SF10BW125, 4/5CR
0.581km -119 -14.8 867.3MHz, SF10BW125, 4/5CR
- -125 -18 867.3MHz, SF10BW125, 4/5CR
2026-05-02 01:03:48 14.875°C 51.25% 3.34V v254 52.0985 / 5.12204 8540 ttn.v3 - -119 -15.25 868.5MHz, SF10BW125, 4/5CR
2026-05-02 00:47:51 14.625°C 54.9375% 3.34V v254 52.0985 / 5.12204 8539 ttn.v3 0.581km -119 -12.8 867.1MHz, SF10BW125, 4/5CR
2026-05-02 00:15:54 15.1875°C 53.25% 3.34V v254 52.0985 / 5.12204 8537 ttn.v3 2.144km -105 -11 867.9MHz, SF10BW125, 4/5CR
0.581km -121 -13.8 867.9MHz, SF10BW125, 4/5CR
2026-05-01 23:59:56 15.5625°C 51.125% 3.34V v254 52.0985 / 5.12204 8536 ttn.v3 0.581km -121 -15.8 868.1MHz, SF10BW125, 4/5CR
2026-05-01 22:40:02 18.1875°C 41.125% 3.34V v254 52.0985 / 5.12204 8531 ttn.v3 2.144km -95 -6.5 867.3MHz, SF10BW125, 4/5CR
0.581km -119 -13.2 867.3MHz, SF10BW125, 4/5CR
- -126 -14.25 867.3MHz, SF10BW125, 4/5CR
2026-05-01 21:36:03 19.0625°C 41.1875% 3.34V v254 52.0985 / 5.12204 8527 ttn.v3 - -122 -8.5 867.9MHz, SF10BW125, 4/5CR
2.144km -111 -11.25 867.9MHz, SF10BW125, 4/5CR
0.581km -121 -16.2 867.9MHz, SF10BW125, 4/5CR
2026-05-01 20:48:02 20.8125°C 35.375% 3.34V v254 52.0985 / 5.12204 8524 ttn.v3 0.581km -121 -14.5 868.1MHz, SF10BW125, 4/5CR
2026-05-01 20:32:01 21.3125°C 36.25% 3.34V v254 52.0985 / 5.12204 8523 ttn.v3 0.581km -118 -14 867.5MHz, SF10BW125, 4/5CR
2026-05-01 19:59:59 22.5°C 30.0625% 3.34V v254 52.0985 / 5.12204 8521 ttn.v3 2.144km -107 -5 867.3MHz, SF10BW125, 4/5CR
0.581km -119 -15.2 867.3MHz, SF10BW125, 4/5CR
2026-05-01 17:19:43 23.5625°C 25.9375% 3.34V v254 52.0985 / 5.12204 8511 ttn.v3 2.144km -107 -7.75 867.3MHz, SF10BW125, 4/5CR
2026-05-01 17:03:41 23.8125°C 26.1875% 3.34V v254 52.0985 / 5.12204 8510 ttn.v3 0.581km -119 -14.8 868.5MHz, SF10BW125, 4/5CR
2026-05-01 16:47:39 23.6875°C 24.6875% 3.34V v254 52.0985 / 5.12204 8509 ttn.v3 2.144km -109 -6.75 867.1MHz, SF10BW125, 4/5CR
2026-05-01 15:43:32 23.875°C 26.9375% 3.34V v254 52.0985 / 5.12204 8505 ttn.v3 2.144km -96 -11.5 867.7MHz, SF10BW125, 4/5CR
2026-05-01 14:39:27 23.0625°C 25.6875% 3.35V v254 52.0985 / 5.12204 8501 ttn.v3 2.144km -107 -4.25 867.3MHz, SF10BW125, 4/5CR
2026-05-01 14:23:26 22.8125°C 25.125% 3.35V v254 52.0985 / 5.12204 8500 ttn.v3 2.144km -108 -9 868.1MHz, SF10BW125, 4/5CR
- -125 -15.5 868.1MHz, SF10BW125, 4/5CR
2026-05-01 13:51:24 22.5625°C 27.75% 3.34V v254 52.0985 / 5.12204 8498 ttn.v3 - -120 -16.75 868.5MHz, SF10BW125, 4/5CR
2026-05-01 13:35:23 22.1875°C 26.25% 3.34V v254 52.0985 / 5.12204 8497 ttn.v3 2.144km -110 -6.75 867.9MHz, SF10BW125, 4/5CR
- -122 -12 867.9MHz, SF10BW125, 4/5CR
2026-05-01 11:59:19 20.125°C 30.3125% 3.34V v254 52.0985 / 5.12204 8491 ttn.v3 2.144km -105 -5.25 867.3MHz, SF10BW125, 4/5CR
- -123 -10.5 867.3MHz, SF10BW125, 4/5CR
2026-05-01 11:27:20 19.625°C 32.8125% 3.34V v254 52.0985 / 5.12204 8489 ttn.v3 2.144km -109 -12.25 867.1MHz, SF10BW125, 4/5CR
0.581km -121 -15.5 867.1MHz, SF10BW125, 4/5CR
2026-05-01 11:11:20 19.25°C 34.4375% 3.34V v254 52.0985 / 5.12204 8488 ttn.v3 - -121 -9.5 868.1MHz, SF10BW125, 4/5CR
2026-05-01 10:55:21 18.8125°C 33.1875% 3.34V v254 52.0985 / 5.12204 8487 ttn.v3 2.144km -109 -8.5 867.9MHz, SF10BW125, 4/5CR
- -123 -9.5 867.9MHz, SF10BW125, 4/5CR
2026-05-01 10:23:23 17.8125°C 36.4375% 3.34V v254 52.0985 / 5.12204 8485 ttn.v3 - -124 -13.5 867.7MHz, SF10BW125, 4/5CR
0.581km -119 -15.8 867.7MHz, SF10BW125, 4/5CR
2026-05-01 09:19:30 14.6875°C 47.0625% 3.34V v254 52.0985 / 5.12204 8481 ttn.v3 2.144km -105 -10.25 867.3MHz, SF10BW125, 4/5CR
2026-05-01 08:47:37 13.0625°C 50.4375% 3.34V v254 52.0985 / 5.12204 8479 ttn.v3 2.144km -109 -7.25 867.1MHz, SF10BW125, 4/5CR
2026-05-01 07:59:47 12°C 54.0625% 3.33V v254 52.0985 / 5.12204 8476 ttn.v3 - -121 -10.75 868.1MHz, SF10BW125, 4/5CR
2026-05-01 07:43:51 11.5°C 56.5625% 3.33V v254 52.0985 / 5.12204 8475 ttn.v3 2.144km -97 -8 867.7MHz, SF10BW125, 4/5CR
2026-05-01 06:40:08 10.8125°C 57.625% 3.34V v254 52.0985 / 5.12204 8471 ttn.v3 2.144km -105 -4.75 867.3MHz, SF10BW125, 4/5CR
2026-05-01 06:08:16 11°C 57% 3.33V v254 52.0985 / 5.12204 8469 ttn.v3 2.144km -107 1 867.1MHz, SF10BW125, 4/5CR
2026-05-01 05:04:32 10.875°C 59.75% 3.33V v254 52.0985 / 5.12204 8465 ttn.v3 2.144km -105 -7.75 867.7MHz, SF10BW125, 4/5CR
2026-05-01 04:00:47 12.125°C 54.5625% 3.33V v254 52.0985 / 5.12204 8461 ttn.v3 2.144km -103 -5.25 867.3MHz, SF10BW125, 4/5CR
2026-05-01 03:12:58 12.625°C 52% 3.34V v254 52.0985 / 5.12204 8458 ttn.v3 - -123 -11.75 868.1MHz, SF10BW125, 4/5CR
2.144km -109 -16 868.1MHz, SF10BW125, 4/5CR
2026-05-01 01:21:19 13.875°C 48.375% 3.34V v254 52.0985 / 5.12204 8451 ttn.v3 2.144km -104 -4.25 867.3MHz, SF10BW125, 4/5CR
2026-05-01 00:17:29 14.625°C 43.6875% 3.34V v254 52.0985 / 5.12204 8447 ttn.v3 2.144km -109 -5 867.9MHz, SF10BW125, 4/5CR
2026-05-01 00:02:37 14.75°C 43.3125% 3.34V v254 52.0985 / 5.12204 8446 ttn.v3 - -125 -16.75 868.1MHz, SF12BW125, 4/5CR
2026-04-30 23:45:37 14.8125°C 42.5625% 3.34V v254 52.0983 / 5.12253 8445 ttn.v3 2.107km -102 -2.25 867.7MHz, SF10BW125, 4/5CR
2026-04-30 22:41:45 15.75°C 39.75% 3.34V v254 52.0983 / 5.12253 8441 ttn.v3 2.107km -104 -3.25 867.3MHz, SF10BW125, 4/5CR
2026-04-30 22:09:49 16.0625°C 38.25% 3.34V v254 52.0983 / 5.12253 8439 ttn.v3 2.107km -107 -6.25 867.1MHz, SF10BW125, 4/5CR
- -125 -12.25 867.1MHz, SF10BW125, 4/5CR
2026-04-30 21:37:52 16.3125°C 37.625% 3.34V v254 52.0983 / 5.12253 8437 ttn.v3 2.107km -107 -8.75 867.9MHz, SF10BW125, 4/5CR
2026-04-30 21:05:55 17.125°C 32.5% 3.34V v254 52.0983 / 5.12253 8435 ttn.v3 - -119 -6.75 867.7MHz, SF10BW125, 4/5CR
2.107km -100 -8.5 867.7MHz, SF10BW125, 4/5CR
2026-04-30 20:01:58 18.6875°C 29.5625% 3.34V v254 52.0983 / 5.12253 8431 ttn.v3 2.107km -105 -4.25 867.3MHz, SF10BW125, 4/5CR
2026-04-30 19:29:59 19.3125°C 28.375% 3.34V v254 52.0983 / 5.12253 8429 ttn.v3 2.107km -107 -3.75 867.1MHz, SF10BW125, 4/5CR
2026-04-30 19:13:59 19.3125°C 27.25% 3.34V v254 52.0983 / 5.12253 8428 ttn.v3 - -121 -11.25 868.1MHz, SF10BW125, 4/5CR
2026-04-30 18:58:00 19.625°C 26.375% 3.34V v254 52.0983 / 5.12253 8427 ttn.v3 2.107km -110 -6.5 867.9MHz, SF10BW125, 4/5CR
- -123 -9.25 867.9MHz, SF10BW125, 4/5CR
2026-04-30 18:26:00 19.6875°C 23.8125% 3.34V v254 52.0983 / 5.12253 8425 ttn.v3 2.107km -101 -13.75 867.7MHz, SF10BW125, 4/5CR
2026-04-30 17:22:01 20.25°C 22.625% 3.34V v254 52.0983 / 5.12253 8421 ttn.v3 2.107km -103 -2.75 867.3MHz, SF10BW125, 4/5CR
2026-04-30 16:50:01 20.4375°C 23.6875% 3.34V v254 52.0983 / 5.12253 8419 ttn.v3 2.107km -108 -2.5 867.1MHz, SF10BW125, 4/5CR
2026-04-30 16:18:00 20.3125°C 25.1875% 3.34V v254 52.0983 / 5.12253 8417 ttn.v3 2.107km -110 -9.5 867.9MHz, SF10BW125, 4/5CR
2026-04-30 16:02:00 20.0625°C 23.875% 3.34V v254 52.0983 / 5.12253 8416 ttn.v3 - -121 -12.75 868.1MHz, SF10BW125, 4/5CR
2026-04-30 15:46:00 20.0625°C 25.3125% 3.34V v254 52.0983 / 5.12253 8415 ttn.v3 2.107km -101 -8.5 867.7MHz, SF10BW125, 4/5CR
2026-04-30 14:42:01 19.5625°C 22.375% 3.34V v254 52.0983 / 5.12253 8411 ttn.v3 2.107km -104 -7 867.3MHz, SF10BW125, 4/5CR
2026-04-30 14:10:01 19.3125°C 24.9375% 3.34V v254 52.0983 / 5.12253 8409 ttn.v3 2.107km -108 -5 867.1MHz, SF10BW125, 4/5CR
2026-04-30 13:06:04 18.375°C 24.125% 3.34V v254 52.0983 / 5.12253 8405 ttn.v3 2.107km -102 -13 867.7MHz, SF10BW125, 4/5CR
2026-04-30 12:18:07 17.3125°C 28.125% 3.34V v254 52.0983 / 5.12253 8402 ttn.v3 - -123 -18 868.5MHz, SF10BW125, 4/5CR
2026-04-30 11:30:11 16.4375°C 26.5625% 3.34V v254 52.0983 / 5.12253 8399 ttn.v3 2.107km -108 -6.25 867.1MHz, SF10BW125, 4/5CR
2026-04-30 10:58:14 16.0625°C 29.4375% 3.34V v254 52.0983 / 5.12253 8397 ttn.v3 2.107km -109 -10.25 867.9MHz, SF10BW125, 4/5CR
2026-04-30 10:42:16 15.625°C 29.25% 3.34V v254 52.0983 / 5.12253 8396 ttn.v3 - -120 -15.25 868.5MHz, SF10BW125, 4/5CR
2026-04-30 10:26:18 14.9375°C 30.0625% 3.34V v254 52.0983 / 5.12253 8395 ttn.v3 2.107km -91 -5 867.7MHz, SF10BW125, 4/5CR
2026-04-30 09:22:29 12.5625°C 39% 3.33V v254 52.0983 / 5.12253 8391 ttn.v3 2.107km -107 -8.25 867.3MHz, SF10BW125, 4/5CR
2026-04-30 08:18:45 9.5°C 51.125% 3.33V v254 52.0983 / 5.12253 8387 ttn.v3 2.107km -109 -10 867.9MHz, SF10BW125, 4/5CR
- -124 -12.75 867.9MHz, SF10BW125, 4/5CR
2026-04-30 07:46:54 8.6875°C 56.25% 3.33V v254 52.0983 / 5.12253 8385 ttn.v3 2.107km -109 -10 867.7MHz, SF10BW125, 4/5CR
2026-04-30 06:43:14 7.875°C 57.6875% 3.33V v254 52.0983 / 5.12253 8381 ttn.v3 2.107km -99 -6.25 867.3MHz, SF10BW125, 4/5CR
2026-04-30 06:11:24 8.0625°C 58.8125% 3.33V v254 52.0983 / 5.12253 8379 ttn.v3 2.107km -108 -1 867.1MHz, SF10BW125, 4/5CR
- -128 -13.5 867.1MHz, SF10BW125, 4/5CR
2026-04-30 05:39:33 8.3125°C 59.25% 3.33V v254 52.0983 / 5.12253 8377 ttn.v3 - -121 -9.25 867.9MHz, SF10BW125, 4/5CR
2026-04-30 05:07:43 8.6875°C 55.125% 3.33V v254 52.0983 / 5.12253 8375 ttn.v3 2.107km -101 -6.75 867.7MHz, SF10BW125, 4/5CR
2026-04-30 04:19:56 9.125°C 56.625% 3.33V v254 52.0983 / 5.12253 8372 ttn.v3 - -117 -16.25 868.5MHz, SF10BW125, 4/5CR
2026-04-30 03:32:09 10.0625°C 53.3125% 3.33V v254 52.0983 / 5.12253 8369 ttn.v3 2.107km -104 -3.5 867.1MHz, SF10BW125, 4/5CR
2026-04-30 03:16:13 10.375°C 52.6875% 3.33V v254 52.0983 / 5.12253 8368 ttn.v3 - -121 -11.75 868.1MHz, SF10BW125, 4/5CR
2026-04-30 03:00:17 10.6875°C 51.1875% 3.33V v254 52.0983 / 5.12253 8367 ttn.v3 2.107km -111 -13.75 867.9MHz, SF10BW125, 4/5CR
2026-04-30 02:28:25 11.0625°C 50.125% 3.33V v254 52.0983 / 5.12253 8365 ttn.v3 - -122 -9.75 867.7MHz, SF10BW125, 4/5CR
2.107km -109 -11 867.7MHz, SF10BW125, 4/5CR
2026-04-30 01:40:36 11.5°C 46.3125% 3.33V v254 52.0983 / 5.12253 8362 ttn.v3 - -119 -10.25 868.1MHz, SF10BW125, 4/5CR
2026-04-30 00:20:54 12.4375°C 44.5% 3.33V v254 52.0983 / 5.12253 8357 ttn.v3 2.107km -110 -7.75 867.9MHz, SF10BW125, 4/5CR
2026-04-30 00:04:57 12.625°C 44.9375% 3.33V v254 52.0983 / 5.12253 8356 ttn.v3 - -119 -9.25 868.1MHz, SF10BW125, 4/5CR
2026-04-29 23:49:00 12.8125°C 44.625% 3.33V v254 52.0983 / 5.12253 8355 ttn.v3 2.107km -109 -4.75 867.7MHz, SF10BW125, 4/5CR
2026-04-29 22:45:11 13.5625°C 43.3125% 3.34V v254 52.0983 / 5.12253 8351 ttn.v3 2.107km -95 -3.75 867.3MHz, SF10BW125, 4/5CR
- -127 -15.75 867.3MHz, SF10BW125, 4/5CR
2026-04-29 22:30:05 13.6875°C 44.0625% 3.34V v254 52.0983 / 5.12253 8350 ttn.v3 - -123 -15.5 868.1MHz, SF12BW125, 4/5CR
2026-04-29 21:41:24 14.5°C 40.0625% 3.34V v254 52.0982 / 5.12253 8347 ttn.v3 2.105km -110 -9.75 867.9MHz, SF10BW125, 4/5CR
2026-04-29 20:21:32 16.3125°C 35.5625% 3.34V v254 52.0982 / 5.12253 8342 ttn.v3 - -118 -13 868.5MHz, SF10BW125, 4/5CR
2026-04-29 20:05:34 16.75°C 33.5% 3.34V v254 52.0982 / 5.12253 8341 ttn.v3 2.105km -105 -4.25 867.3MHz, SF10BW125, 4/5CR
2026-04-29 19:33:36 17.375°C 31.8125% 3.34V v254 52.0982 / 5.12253 8339 ttn.v3 2.105km -105 -6.75 867.1MHz, SF10BW125, 4/5CR
2026-04-29 17:41:40 18.9375°C 29.8125% 3.34V v254 52.0982 / 5.12253 8332 ttn.v3 - -127 -17.5 868.1MHz, SF10BW125, 4/5CR
2026-04-29 17:25:41 19.125°C 27.5625% 3.34V v254 52.0982 / 5.12253 8331 ttn.v3 2.105km -107 -4.75 867.3MHz, SF10BW125, 4/5CR
2026-04-29 16:05:40 19.5°C 27.4375% 3.34V v254 52.0982 / 5.12253 8326 ttn.v3 - -122 -15.5 868.1MHz, SF10BW125, 4/5CR
2026-04-29 15:49:40 19.4375°C 24.0625% 3.34V v254 52.0982 / 5.12253 8325 ttn.v3 2.105km -105 -9.25 867.7MHz, SF10BW125, 4/5CR
- -123 -13 867.7MHz, SF10BW125, 4/5CR
2026-04-29 15:33:40 19.875°C 25% 3.34V v254 52.0982 / 5.12253 8324 ttn.v3 - -118 -14.5 868.5MHz, SF10BW125, 4/5CR
2026-04-29 14:45:39 19.8125°C 28% 3.34V v254 52.0982 / 5.12253 8321 ttn.v3 2.105km -101 -3.5 867.3MHz, SF10BW125, 4/5CR
2026-04-29 14:13:40 19.3125°C 30.875% 3.34V v254 52.0982 / 5.12253 8319 ttn.v3 2.105km -109 -4 867.1MHz, SF10BW125, 4/5CR
2026-04-29 13:57:40 19.1875°C 34.75% 3.34V v254 52.0982 / 5.12253 8318 ttn.v3 - -120 -17 868.5MHz, SF10BW125, 4/5CR
2026-04-29 12:05:46 16.8125°C 38.75% 3.34V v254 52.0982 / 5.12253 8311 ttn.v3 2.105km -107 -5.75 867.3MHz, SF10BW125, 4/5CR
2026-04-29 11:33:49 16.3125°C 38% 3.34V v254 52.0982 / 5.12253 8309 ttn.v3 2.105km -105 -2.25 867.1MHz, SF10BW125, 4/5CR
2026-04-29 08:54:16 9.3125°C 56.5% 3.33V v254 52.0982 / 5.12253 8299 ttn.v3 2.105km -105 -7 867.1MHz, SF10BW125, 4/5CR
2026-04-29 07:50:34 7.9375°C 58.5% 3.33V v254 52.0982 / 5.12253 8295 ttn.v3 2.105km -99 -3.75 867.7MHz, SF10BW125, 4/5CR
2026-04-29 06:15:04 8.0625°C 59.1875% 3.33V v254 52.0982 / 5.12253 8289 ttn.v3 2.105km -107 -3 867.1MHz, SF10BW125, 4/5CR
2026-04-29 05:43:13 8.4375°C 56% 3.33V v254 52.0982 / 5.12253 8287 ttn.v3 - -125 -12 867.9MHz, SF10BW125, 4/5CR
2026-04-29 05:11:22 8.8125°C 56.25% 3.33V v254 52.0982 / 5.12253 8285 ttn.v3 2.105km -101 -11.5 867.7MHz, SF10BW125, 4/5CR
2026-04-29 04:23:36 9.25°C 53.4375% 3.33V v254 52.0982 / 5.12253 8282 ttn.v3 - -121 -15 868.5MHz, SF10BW125, 4/5CR
2026-04-29 04:07:41 9.5625°C 53.1875% 3.33V v254 52.0982 / 5.12253 8281 ttn.v3 2.105km -104 -5.75 867.3MHz, SF10BW125, 4/5CR
2026-04-29 02:32:06 10.4375°C 52.6875% 3.33V v254 52.0982 / 5.12253 8275 ttn.v3 2.105km -107 -9.75 867.7MHz, SF10BW125, 4/5CR
2026-04-29 00:56:28 11.4375°C 51.5% 3.33V v254 52.0982 / 5.12253 8269 ttn.v3 2.105km -104 -1.75 867.1MHz, SF10BW125, 4/5CR
2026-04-29 00:24:35 11.875°C 49.625% 3.33V v254 52.0982 / 5.12253 8267 ttn.v3 2.105km -110 -11.25 867.9MHz, SF10BW125, 4/5CR
2026-04-28 22:48:53 13.375°C 43.5% 3.33V v254 52.0982 / 5.12253 8261 ttn.v3 2.105km -105 -5.5 867.3MHz, SF10BW125, 4/5CR
2026-04-28 22:32:55 13.6875°C 44.3125% 3.33V v254 52.0982 / 5.12253 8260 ttn.v3 2.105km -104 -12 868.1MHz, SF10BW125, 4/5CR
2026-04-28 21:45:01 14.5625°C 43.1875% 3.34V v254 52.0982 / 5.12253 8257 ttn.v3 - -129 -15.5 867.9MHz, SF10BW125, 4/5CR
2026-04-28 20:09:14 16.5°C 37.5625% 3.34V v254 52.0982 / 5.12259 8251 ttn.v3 2.101km -104 -6 867.3MHz, SF10BW125, 4/5CR
2026-04-28 19:37:16 17.25°C 36.875% 3.34V v254 52.0982 / 5.12259 8249 ttn.v3 2.101km -107 -4.75 867.1MHz, SF10BW125, 4/5CR
2026-04-28 19:05:16 17.8125°C 35.0625% 3.34V v254 52.0982 / 5.12259 8247 ttn.v3 - -122 -9.5 867.9MHz, SF10BW125, 4/5CR
2026-04-28 17:29:17 19.125°C 35.5625% 3.34V v254 52.0982 / 5.12259 8241 ttn.v3 2.101km -99 -4.25 867.3MHz, SF10BW125, 4/5CR
2026-04-28 16:57:17 19.5°C 34.75% 3.34V v254 52.0982 / 5.12259 8239 ttn.v3 2.101km -104 1 867.1MHz, SF10BW125, 4/5CR
2026-04-28 16:25:16 19.6875°C 35% 3.34V v254 52.0982 / 5.12259 8237 ttn.v3 2.101km -108 -10.5 867.9MHz, SF10BW125, 4/5CR
- -122 -12 867.9MHz, SF10BW125, 4/5CR
2026-04-28 15:53:15 19.8125°C 34.75% 3.34V v254 52.0982 / 5.12259 8235 ttn.v3 2.101km -107 -8.75 867.7MHz, SF10BW125, 4/5CR
2026-04-28 14:49:13 19.75°C 35.875% 3.34V v254 52.0982 / 5.12259 8231 ttn.v3 2.101km -104 -2.75 867.3MHz, SF10BW125, 4/5CR
2026-04-28 14:33:13 19.5625°C 28.9375% 3.34V v254 52.0982 / 5.12259 8230 ttn.v3 - -120 -11 868.1MHz, SF10BW125, 4/5CR
2026-04-28 13:13:12 18.6875°C 44.6875% 3.34V v254 52.0982 / 5.12259 8225 ttn.v3 2.101km -101 -7.75 867.7MHz, SF10BW125, 4/5CR
2026-04-28 12:57:12 18.125°C 47.8125% 3.34V v254 52.0982 / 5.12259 8224 ttn.v3 - -122 -11.75 868.1MHz, SF10BW125, 4/5CR
2026-04-28 11:37:15 16.25°C 54.3125% 3.34V v254 52.0982 / 5.12259 8219 ttn.v3 2.101km -109 -5.25 867.1MHz, SF10BW125, 4/5CR
2026-04-28 09:29:35 10.5°C 71.5625% 3.33V v254 52.0982 / 5.12259 8211 ttn.v3 2.101km -101 -1.75 867.3MHz, SF10BW125, 4/5CR
2026-04-28 08:57:44 9°C 77.9375% 3.33V v254 52.0982 / 5.12259 8209 ttn.v3 2.101km -107 -2.25 867.1MHz, SF10BW125, 4/5CR
2026-04-28 07:54:02 8°C 83.875% 3.33V v254 52.0982 / 5.12259 8205 ttn.v3 2.101km -108 -11.75 867.7MHz, SF10BW125, 4/5CR
2026-04-28 06:50:22 7.5°C 87.25% 3.33V v254 52.0982 / 5.12259 8201 ttn.v3 2.101km -105 -2.5 867.3MHz, SF10BW125, 4/5CR
2026-04-28 06:18:31 7.75°C 86.25% 3.33V v254 52.0982 / 5.12259 8199 ttn.v3 2.101km -96 -1 867.1MHz, SF10BW125, 4/5CR
2026-04-28 05:46:41 7.9375°C 85.375% 3.33V v254 52.0982 / 5.12259 8197 ttn.v3 2.101km -110 -14.75 867.9MHz, SF10BW125, 4/5CR
2026-04-28 05:14:50 8.1875°C 84.5% 3.33V v254 52.0982 / 5.12259 8195 ttn.v3 2.101km -106 -5.5 867.7MHz, SF10BW125, 4/5CR
2026-04-28 04:58:55 8.375°C 83.3125% 3.33V v254 52.0982 / 5.12259 8194 ttn.v3 - -120 -12.25 868.1MHz, SF10BW125, 4/5CR
2026-04-28 03:39:18 8.75°C 80.5% 3.33V v254 52.0982 / 5.12259 8189 ttn.v3 2.101km -107 -1.25 867.1MHz, SF10BW125, 4/5CR
2026-04-28 03:23:22 8.9375°C 79.5625% 3.33V v254 52.0982 / 5.12259 8188 ttn.v3 2.101km -103 -11.25 868.1MHz, SF10BW125, 4/5CR
2026-04-28 02:35:35 9.25°C 78.25% 3.33V v254 52.0982 / 5.12259 8185 ttn.v3 2.101km -104 -7.5 867.7MHz, SF10BW125, 4/5CR
2026-04-28 01:31:51 9.875°C 79.6875% 3.33V v254 52.0982 / 5.12259 8181 ttn.v3 2.101km -93 -7.5 867.3MHz, SF10BW125, 4/5CR
2026-04-28 00:59:59 10.3125°C 79.75% 3.33V v254 52.0982 / 5.12259 8179 ttn.v3 2.101km -97 -4 867.1MHz, SF10BW125, 4/5CR
- -128 -14.75 867.1MHz, SF10BW125, 4/5CR
2026-04-27 23:56:13 11°C 75.75% 3.33V v254 52.0982 / 5.12259 8175 ttn.v3 2.101km -109 -11.5 867.7MHz, SF10BW125, 4/5CR
2026-04-27 22:20:33 11.5625°C 76.25% 3.33V v254 52.0982 / 5.12259 8169 ttn.v3 2.101km -108 -7.25 867.1MHz, SF10BW125, 4/5CR
- -127 -13.5 867.1MHz, SF10BW125, 4/5CR
2026-04-27 21:16:46 12.1875°C 73.25% 3.33V v254 52.0982 / 5.12259 8165 ttn.v3 2.101km -107 -5 867.7MHz, SF10BW125, 4/5CR
- -125 -13.25 867.7MHz, SF10BW125, 4/5CR
2026-04-27 20:12:57 13.75°C 60.875% 3.33V v254 52.0982 / 5.12259 8161 ttn.v3 2.101km -108 -6.25 867.3MHz, SF10BW125, 4/5CR
2026-04-27 19:41:01 14.3125°C 56.5% 3.34V v254 52.0982 / 5.12259 8159 ttn.v3 2.101km -108 -8 867.1MHz, SF10BW125, 4/5CR
2026-04-27 18:37:11 15.5°C 46.6875% 3.34V v254 52.0982 / 5.12259 8155 ttn.v3 2.101km -105 -8.25 867.7MHz, SF10BW125, 4/5CR
2026-04-27 17:49:15 16.1875°C 45.375% 3.34V v254 52.0982 / 5.12259 8152 ttn.v3 - -124 -18.75 868.1MHz, SF10BW125, 4/5CR
2026-04-27 17:01:18 16.625°C 49.0625% 3.34V v254 52.0982 / 5.12259 8149 ttn.v3 2.101km -108 -8.75 867.1MHz, SF10BW125, 4/5CR
2026-04-27 16:29:20 17.5°C 49.625% 3.34V v254 52.0982 / 5.12259 8147 ttn.v3 2.101km -109 -10.5 867.9MHz, SF10BW125, 4/5CR
2026-04-27 16:13:21 17.5°C 52.5625% 3.34V v254 52.0982 / 5.12259 8146 ttn.v3 2.101km -104 -11.75 868.1MHz, SF10BW125, 4/5CR
2026-04-27 11:41:39 14.4375°C 61.25% 3.33V v254 52.0982 / 5.12259 8129 ttn.v3 2.101km -109 -3.5 867.1MHz, SF10BW125, 4/5CR

Message count: 200
Node count: 1

Messages per node

Number of messages in list aboveNodes
200

Statistics per gateway

GatewayNumber of messagesNumber of nodesNodes
1331 (2.101km)
701
361 (0.581km)
11

Filter by dataset